TAP1040 LPPT-LEBL
Flight info
| Callsign | TAP1040 |
|---|---|
| Flight time | 1h 21m |
| Altitude | 36000 |
| Route | ORVED1S ORVED DCT UREDI DCT DIPOL DCT RBO DCT PINAR DCT SEGRE DCT BRITO DCT PISUS DCT PONEN T600 CASPE CASPE3Y |
| Aircraft | A320/M-SDE3FGHIRWY/LB1 |
Departure
| Time | 2026-04-29 09:45 |
|---|---|
| Airport | Lisbon Humberto Delgado Airport (LPPT) |
Arrival
| Time | 2026-04-29 11:06 |
|---|---|
| Airport | Josep Tarradellas Barcelona-El Prat Airport (LEBL) |
| Time | Latitude | Longitude | Altitude | Speed | Heading |
|---|---|---|---|---|---|
| 2026-04-29 09:14 | 38.77207 | -9.13135 | 337 ft | 0 kts | 78° |
| 2026-04-29 09:36 | 38.77206 | -9.13143 | 337 ft | 4 kts | 79° |
| 2026-04-29 09:36 | 38.77201 | -9.13177 | 333 ft | 4 kts | 81° |
| 2026-04-29 09:36 | 38.77196 | -9.13210 | 335 ft | 4 kts | 57° |
| 2026-04-29 09:37 | 38.77186 | -9.13221 | 333 ft | 0 kts | 348° |
| 2026-04-29 09:40 | 38.77199 | -9.13225 | 335 ft | 8 kts | 348° |
| 2026-04-29 09:40 | 38.77266 | -9.13243 | 338 ft | 9 kts | 348° |
| 2026-04-29 09:40 | 38.77338 | -9.13257 | 338 ft | 13 kts | 351° |
| 2026-04-29 09:40 | 38.77432 | -9.13280 | 337 ft | 14 kts | 348° |
| 2026-04-29 09:41 | 38.77532 | -9.13307 | 336 ft | 14 kts | 348° |
| 2026-04-29 09:41 | 38.77632 | -9.13320 | 338 ft | 15 kts | 359° |
| 2026-04-29 09:41 | 38.77734 | -9.13339 | 341 ft | 16 kts | 347° |
| 2026-04-29 09:41 | 38.77831 | -9.13366 | 347 ft | 13 kts | 348° |
| 2026-04-29 09:42 | 38.77926 | -9.13392 | 359 ft | 14 kts | 349° |
| 2026-04-29 09:42 | 38.78028 | -9.13412 | 360 ft | 15 kts | 4° |
| 2026-04-29 09:42 | 38.78119 | -9.13370 | 362 ft | 13 kts | 22° |
| 2026-04-29 09:42 | 38.78197 | -9.13329 | 358 ft | 11 kts | 23° |
| 2026-04-29 09:43 | 38.78263 | -9.13294 | 361 ft | 11 kts | 22° |
| 2026-04-29 09:43 | 38.78338 | -9.13254 | 361 ft | 11 kts | 22° |
| 2026-04-29 09:43 | 38.78407 | -9.13223 | 364 ft | 12 kts | 13° |
| 2026-04-29 09:43 | 38.78500 | -9.13242 | 361 ft | 15 kts | 331° |
| 2026-04-29 09:44 | 38.78549 | -9.13342 | 365 ft | 11 kts | 283° |
| 2026-04-29 09:44 | 38.78518 | -9.13387 | 362 ft | 0 kts | 203° |
| 2026-04-29 09:44 | 38.78517 | -9.13387 | 362 ft | 0 kts | 203° |
| 2026-04-29 09:44 | 38.78345 | -9.13481 | 365 ft | 66 kts | 202° |
| 2026-04-29 09:45 | 38.77712 | -9.13819 | 364 ft | 128 kts | 202° |
| 2026-04-29 09:45 | 38.76728 | -9.14333 | 427 ft | 169 kts | 204° |
| 2026-04-29 09:45 | 38.75674 | -9.14884 | 1270 ft | 162 kts | 204° |
| 2026-04-29 09:45 | 38.74631 | -9.15446 | 1985 ft | 163 kts | 206° |
| 2026-04-29 09:46 | 38.73606 | -9.16003 | 2659 ft | 161 kts | 205° |
| 2026-04-29 09:46 | 38.72516 | -9.16593 | 3069 ft | 181 kts | 203° |
| 2026-04-29 09:46 | 38.71185 | -9.16821 | 3407 ft | 207 kts | 169° |
| 2026-04-29 09:46 | 38.69932 | -9.15805 | 3777 ft | 234 kts | 129° |
| 2026-04-29 09:47 | 38.69393 | -9.13737 | 4175 ft | 263 kts | 90° |
| 2026-04-29 09:47 | 38.69871 | -9.11422 | 4891 ft | 276 kts | 65° |
| 2026-04-29 09:47 | 38.70834 | -9.09271 | 5768 ft | 281 kts | 58° |
| 2026-04-29 09:47 | 38.71882 | -9.07130 | 6624 ft | 286 kts | 61° |
| 2026-04-29 09:48 | 38.72888 | -9.04915 | 7477 ft | 289 kts | 63° |
| 2026-04-29 09:48 | 38.73880 | -9.02656 | 8345 ft | 293 kts | 63° |
| 2026-04-29 09:48 | 38.74878 | -9.00361 | 9227 ft | 297 kts | 64° |
| 2026-04-29 09:48 | 38.75888 | -8.98041 | 10056 ft | 302 kts | 64° |
| 2026-04-29 09:49 | 38.76950 | -8.95599 | 10345 ft | 326 kts | 63° |
| 2026-04-29 09:49 | 38.78094 | -8.92983 | 10685 ft | 345 kts | 63° |
| 2026-04-29 09:49 | 38.79288 | -8.90273 | 11340 ft | 352 kts | 63° |
| 2026-04-29 09:49 | 38.80509 | -8.87518 | 12075 ft | 358 kts | 63° |
| 2026-04-29 09:50 | 38.81327 | -8.85674 | 12572 ft | 361 kts | 63° |
| 2026-04-29 09:50 | 38.82576 | -8.82855 | 13308 ft | 367 kts | 62° |
| 2026-04-29 09:50 | 38.83846 | -8.79992 | 13970 ft | 372 kts | 62° |
| 2026-04-29 09:50 | 38.85127 | -8.77091 | 14583 ft | 376 kts | 62° |
| 2026-04-29 09:51 | 38.86420 | -8.74147 | 15232 ft | 380 kts | 62° |
| 2026-04-29 09:51 | 38.87722 | -8.71179 | 15865 ft | 384 kts | 62° |
| 2026-04-29 09:51 | 38.89043 | -8.68171 | 16500 ft | 388 kts | 62° |
| 2026-04-29 09:51 | 38.90378 | -8.65137 | 17103 ft | 393 kts | 62° |
| 2026-04-29 09:52 | 38.91729 | -8.62071 | 17715 ft | 397 kts | 62° |
| 2026-04-29 09:52 | 38.93095 | -8.58964 | 18304 ft | 401 kts | 62° |
| 2026-04-29 09:52 | 38.94472 | -8.55826 | 18827 ft | 406 kts | 62° |
| 2026-04-29 09:52 | 38.95860 | -8.52647 | 19362 ft | 410 kts | 62° |
| 2026-04-29 09:53 | 38.97259 | -8.49437 | 19866 ft | 414 kts | 62° |
| 2026-04-29 09:53 | 38.98669 | -8.46198 | 20377 ft | 418 kts | 62° |
| 2026-04-29 09:53 | 39.00092 | -8.42928 | 20862 ft | 421 kts | 62° |
| 2026-04-29 09:53 | 39.01532 | -8.39620 | 21349 ft | 425 kts | 62° |
| 2026-04-29 09:54 | 39.02980 | -8.36290 | 21845 ft | 429 kts | 62° |
| 2026-04-29 09:54 | 39.04443 | -8.32928 | 22336 ft | 432 kts | 62° |
| 2026-04-29 09:54 | 39.05917 | -8.29544 | 22816 ft | 435 kts | 62° |
| 2026-04-29 09:54 | 39.07397 | -8.26134 | 23304 ft | 438 kts | 62° |
| 2026-04-29 09:55 | 39.08890 | -8.22684 | 23720 ft | 442 kts | 62° |
| 2026-04-29 09:55 | 39.10385 | -8.19223 | 24093 ft | 445 kts | 62° |
| 2026-04-29 09:55 | 39.11895 | -8.15727 | 24471 ft | 448 kts | 62° |
| 2026-04-29 09:55 | 39.13413 | -8.12213 | 24839 ft | 451 kts | 62° |
| 2026-04-29 09:56 | 39.14943 | -8.08667 | 25205 ft | 454 kts | 62° |
| 2026-04-29 09:56 | 39.16480 | -8.05097 | 25563 ft | 457 kts | 62° |
| 2026-04-29 09:56 | 39.18030 | -8.01497 | 25915 ft | 460 kts | 62° |
| 2026-04-29 09:56 | 39.19587 | -7.97878 | 26272 ft | 463 kts | 62° |
| 2026-04-29 09:57 | 39.21154 | -7.94235 | 26622 ft | 467 kts | 62° |
| 2026-04-29 09:57 | 39.22734 | -7.90556 | 26972 ft | 470 kts | 62° |
| 2026-04-29 09:57 | 39.24318 | -7.86861 | 27310 ft | 473 kts | 62° |
| 2026-04-29 09:57 | 39.25895 | -7.83172 | 27650 ft | 476 kts | 62° |
| 2026-04-29 09:58 | 39.27493 | -7.79424 | 28005 ft | 479 kts | 62° |
| 2026-04-29 09:58 | 39.29109 | -7.75631 | 28354 ft | 482 kts | 62° |
| 2026-04-29 09:58 | 39.30734 | -7.71823 | 28684 ft | 485 kts | 62° |
| 2026-04-29 09:58 | 39.32365 | -7.67994 | 29002 ft | 488 kts | 62° |
| 2026-04-29 09:59 | 39.34006 | -7.64138 | 29306 ft | 491 kts | 62° |
| 2026-04-29 09:59 | 39.35654 | -7.60265 | 29606 ft | 494 kts | 62° |
| 2026-04-29 09:59 | 39.37312 | -7.56357 | 29906 ft | 497 kts | 62° |
| 2026-04-29 09:59 | 39.38973 | -7.52437 | 30187 ft | 499 kts | 62° |
| 2026-04-29 10:00 | 39.40641 | -7.48496 | 30482 ft | 500 kts | 62° |
| 2026-04-29 10:00 | 39.42308 | -7.44546 | 30777 ft | 501 kts | 62° |
| 2026-04-29 10:00 | 39.43978 | -7.40585 | 31051 ft | 502 kts | 62° |
| 2026-04-29 10:00 | 39.45650 | -7.36618 | 31419 ft | 501 kts | 62° |
| 2026-04-29 10:01 | 39.47315 | -7.32672 | 31826 ft | 499 kts | 62° |
| 2026-04-29 10:01 | 39.48972 | -7.28738 | 32226 ft | 497 kts | 62° |
| 2026-04-29 10:01 | 39.50624 | -7.24805 | 32616 ft | 496 kts | 62° |
| 2026-04-29 10:01 | 39.52242 | -7.20939 | 32980 ft | 495 kts | 62° |
| 2026-04-29 10:02 | 39.53879 | -7.17021 | 33345 ft | 494 kts | 62° |
| 2026-04-29 10:02 | 39.55515 | -7.13094 | 33706 ft | 493 kts | 62° |
| 2026-04-29 10:02 | 39.57146 | -7.09182 | 34026 ft | 492 kts | 62° |
| 2026-04-29 10:02 | 39.58773 | -7.05283 | 34323 ft | 492 kts | 62° |
| 2026-04-29 10:03 | 39.60399 | -7.01389 | 34635 ft | 491 kts | 62° |
| 2026-04-29 10:03 | 39.62027 | -6.97485 | 34927 ft | 490 kts | 62° |
| 2026-04-29 10:03 | 39.63647 | -6.93593 | 35231 ft | 489 kts | 62° |
| 2026-04-29 10:03 | 39.65255 | -6.89718 | 35527 ft | 488 kts | 62° |
| 2026-04-29 10:04 | 39.66864 | -6.85832 | 35786 ft | 487 kts | 62° |
| 2026-04-29 10:04 | 39.68463 | -6.81960 | 35867 ft | 485 kts | 62° |
| 2026-04-29 10:04 | 39.71638 | -6.74262 | 35874 ft | 483 kts | 62° |
| 2026-04-29 10:05 | 39.74804 | -6.66580 | 35875 ft | 482 kts | 62° |
| 2026-04-29 10:05 | 39.77966 | -6.58901 | 35874 ft | 481 kts | 62° |
| 2026-04-29 10:06 | 39.81123 | -6.51223 | 35871 ft | 481 kts | 62° |
| 2026-04-29 10:06 | 39.84265 | -6.43543 | 35871 ft | 481 kts | 63° |
| 2026-04-29 10:07 | 39.87311 | -6.35786 | 35868 ft | 480 kts | 65° |
| 2026-04-29 10:07 | 39.89983 | -6.27824 | 35866 ft | 480 kts | 69° |
| 2026-04-29 10:08 | 39.92512 | -6.19782 | 35867 ft | 479 kts | 68° |
| 2026-04-29 10:08 | 39.95100 | -6.11786 | 35869 ft | 479 kts | 68° |
| 2026-04-29 10:09 | 39.97751 | -6.03814 | 35876 ft | 479 kts | 67° |
| 2026-04-29 10:09 | 40.00398 | -5.95863 | 35875 ft | 478 kts | 68° |
| 2026-04-29 10:10 | 40.03023 | -5.87898 | 35866 ft | 478 kts | 68° |
| 2026-04-29 10:10 | 40.05636 | -5.79934 | 35876 ft | 477 kts | 68° |
| 2026-04-29 10:11 | 40.08233 | -5.71977 | 35880 ft | 476 kts | 68° |
| 2026-04-29 10:11 | 40.10800 | -5.64080 | 35875 ft | 475 kts | 68° |
| 2026-04-29 10:12 | 40.13379 | -5.56140 | 35880 ft | 474 kts | 68° |
| 2026-04-29 10:12 | 40.15966 | -5.48156 | 35873 ft | 474 kts | 68° |
| 2026-04-29 10:13 | 40.18514 | -5.40279 | 35876 ft | 473 kts | 68° |
| 2026-04-29 10:13 | 40.21067 | -5.32365 | 35876 ft | 472 kts | 69° |
| 2026-04-29 10:14 | 40.23612 | -5.24443 | 35873 ft | 471 kts | 69° |
| 2026-04-29 10:14 | 40.26141 | -5.16543 | 35871 ft | 471 kts | 69° |
| 2026-04-29 10:15 | 40.28667 | -5.08634 | 35871 ft | 470 kts | 69° |
| 2026-04-29 10:15 | 40.31182 | -5.00728 | 35871 ft | 469 kts | 69° |
| 2026-04-29 10:16 | 40.33271 | -4.94152 | 35870 ft | 469 kts | 69° |
| 2026-04-29 10:16 | 40.36192 | -4.84935 | 35869 ft | 468 kts | 69° |
| 2026-04-29 10:17 | 40.38683 | -4.77046 | 35872 ft | 468 kts | 69° |
| 2026-04-29 10:17 | 40.41165 | -4.69169 | 35870 ft | 467 kts | 69° |
| 2026-04-29 10:18 | 40.43635 | -4.61288 | 35874 ft | 467 kts | 70° |
| 2026-04-29 10:18 | 40.46101 | -4.53416 | 35875 ft | 466 kts | 70° |
| 2026-04-29 10:19 | 40.48559 | -4.45532 | 35877 ft | 466 kts | 70° |
| 2026-04-29 10:19 | 40.51007 | -4.37665 | 35873 ft | 466 kts | 70° |
| 2026-04-29 10:20 | 40.53440 | -4.29834 | 35879 ft | 465 kts | 70° |
| 2026-04-29 10:20 | 40.55898 | -4.21900 | 35875 ft | 465 kts | 70° |
| 2026-04-29 10:21 | 40.58313 | -4.14066 | 35881 ft | 465 kts | 70° |
| 2026-04-29 10:21 | 40.60716 | -4.06241 | 35884 ft | 465 kts | 70° |
| 2026-04-29 10:22 | 40.63136 | -3.98356 | 35894 ft | 465 kts | 70° |
| 2026-04-29 10:22 | 40.65551 | -3.90470 | 35892 ft | 464 kts | 70° |
| 2026-04-29 10:23 | 40.67958 | -3.82584 | 35901 ft | 464 kts | 71° |
| 2026-04-29 10:23 | 40.70351 | -3.74691 | 35901 ft | 464 kts | 71° |
| 2026-04-29 10:24 | 40.72741 | -3.66789 | 35908 ft | 464 kts | 71° |
| 2026-04-29 10:24 | 40.75125 | -3.58892 | 35905 ft | 463 kts | 71° |
| 2026-04-29 10:25 | 40.77507 | -3.50992 | 35901 ft | 463 kts | 71° |
| 2026-04-29 10:25 | 40.79885 | -3.43085 | 35902 ft | 464 kts | 71° |
| 2026-04-29 10:26 | 40.82253 | -3.35179 | 35901 ft | 464 kts | 71° |
| 2026-04-29 10:26 | 40.84620 | -3.27248 | 35903 ft | 464 kts | 71° |
| 2026-04-29 10:27 | 40.87309 | -3.15037 | 35903 ft | 462 kts | 78° |
| 2026-04-29 10:28 | 40.88922 | -3.06826 | 35906 ft | 462 kts | 78° |
| 2026-04-29 10:28 | 40.90527 | -2.98613 | 35903 ft | 462 kts | 78° |
| 2026-04-29 10:29 | 40.92121 | -2.90438 | 35910 ft | 462 kts | 78° |
| 2026-04-29 10:29 | 40.93726 | -2.82199 | 35914 ft | 462 kts | 78° |
| 2026-04-29 10:30 | 40.95325 | -2.73979 | 35922 ft | 462 kts | 78° |
| 2026-04-29 10:30 | 40.96919 | -2.65681 | 35919 ft | 462 kts | 78° |
| 2026-04-29 10:31 | 40.98501 | -2.57454 | 35931 ft | 461 kts | 78° |
| 2026-04-29 10:31 | 41.00077 | -2.49218 | 35926 ft | 461 kts | 78° |
| 2026-04-29 10:32 | 41.01642 | -2.40989 | 35921 ft | 461 kts | 78° |
| 2026-04-29 10:32 | 41.03204 | -2.32753 | 35921 ft | 461 kts | 78° |
| 2026-04-29 10:33 | 41.04625 | -2.25254 | 35919 ft | 461 kts | 78° |
| 2026-04-29 10:33 | 41.06177 | -2.17024 | 35915 ft | 461 kts | 78° |
| 2026-04-29 10:34 | 41.07718 | -2.08822 | 35911 ft | 461 kts | 78° |
| 2026-04-29 10:34 | 41.09010 | -2.01918 | 35918 ft | 461 kts | 78° |
| 2026-04-29 10:35 | 41.10543 | -1.93656 | 35914 ft | 461 kts | 78° |
| 2026-04-29 10:35 | 41.12070 | -1.85403 | 35913 ft | 461 kts | 78° |
| 2026-04-29 10:36 | 41.13595 | -1.77141 | 35916 ft | 461 kts | 78° |
| 2026-04-29 10:36 | 41.15125 | -1.68871 | 35919 ft | 461 kts | 78° |
| 2026-04-29 10:37 | 41.16629 | -1.60596 | 35916 ft | 461 kts | 79° |
| 2026-04-29 10:37 | 41.18120 | -1.52324 | 35921 ft | 461 kts | 79° |
| 2026-04-29 10:38 | 41.19619 | -1.44050 | 35925 ft | 461 kts | 78° |
| 2026-04-29 10:38 | 41.21120 | -1.35774 | 35922 ft | 461 kts | 78° |
| 2026-04-29 10:39 | 41.22612 | -1.27499 | 35927 ft | 461 kts | 79° |
| 2026-04-29 10:39 | 41.24085 | -1.19281 | 35926 ft | 460 kts | 79° |
| 2026-04-29 10:40 | 41.25557 | -1.11002 | 35929 ft | 460 kts | 79° |
| 2026-04-29 10:40 | 41.27025 | -1.02722 | 35922 ft | 460 kts | 79° |
| 2026-04-29 10:41 | 41.28489 | -0.94437 | 35921 ft | 460 kts | 79° |
| 2026-04-29 10:41 | 41.29945 | -0.86166 | 35921 ft | 460 kts | 79° |
| 2026-04-29 10:42 | 41.31394 | -0.77873 | 35916 ft | 460 kts | 79° |
| 2026-04-29 10:42 | 41.32844 | -0.69493 | 35613 ft | 474 kts | 79° |
| 2026-04-29 10:42 | 41.33586 | -0.65197 | 35364 ft | 477 kts | 79° |
| 2026-04-29 10:43 | 41.34329 | -0.60891 | 35114 ft | 477 kts | 79° |
| 2026-04-29 10:43 | 41.34938 | -0.56579 | 34864 ft | 474 kts | 86° |
| 2026-04-29 10:43 | 41.35027 | -0.52230 | 34626 ft | 469 kts | 96° |
| 2026-04-29 10:43 | 41.34631 | -0.47934 | 34381 ft | 466 kts | 101° |
| 2026-04-29 10:44 | 41.34149 | -0.43672 | 33974 ft | 465 kts | 101° |
| 2026-04-29 10:44 | 41.33671 | -0.39423 | 33040 ft | 469 kts | 101° |
| 2026-04-29 10:44 | 41.33192 | -0.35134 | 32548 ft | 462 kts | 101° |
| 2026-04-29 10:44 | 41.32722 | -0.30919 | 31926 ft | 459 kts | 101° |
| 2026-04-29 10:45 | 41.32251 | -0.26741 | 31344 ft | 455 kts | 101° |
| 2026-04-29 10:45 | 41.31782 | -0.22601 | 30759 ft | 451 kts | 101° |
| 2026-04-29 10:45 | 41.31311 | -0.18485 | 30179 ft | 448 kts | 101° |
| 2026-04-29 10:45 | 41.30849 | -0.14458 | 29554 ft | 445 kts | 101° |
| 2026-04-29 10:46 | 41.30384 | -0.10413 | 29000 ft | 440 kts | 101° |
| 2026-04-29 10:46 | 41.29921 | -0.06405 | 28443 ft | 435 kts | 101° |
| 2026-04-29 10:46 | 41.29462 | -0.02451 | 27887 ft | 431 kts | 101° |
| 2026-04-29 10:46 | 41.29005 | 0.01467 | 27362 ft | 426 kts | 101° |
| 2026-04-29 10:47 | 41.28562 | 0.05355 | 26875 ft | 421 kts | 98° |
| 2026-04-29 10:47 | 41.28366 | 0.09180 | 26765 ft | 408 kts | 95° |
| 2026-04-29 10:47 | 41.28221 | 0.12878 | 26670 ft | 394 kts | 95° |
| 2026-04-29 10:47 | 41.28093 | 0.16457 | 26562 ft | 386 kts | 95° |
| 2026-04-29 10:48 | 41.27967 | 0.20026 | 26177 ft | 386 kts | 95° |
| 2026-04-29 10:48 | 41.27842 | 0.23587 | 25691 ft | 385 kts | 95° |
| 2026-04-29 10:48 | 41.27716 | 0.27127 | 25233 ft | 383 kts | 95° |
| 2026-04-29 10:48 | 41.27588 | 0.30660 | 24786 ft | 381 kts | 95° |
| 2026-04-29 10:49 | 41.27457 | 0.34167 | 24335 ft | 379 kts | 95° |
| 2026-04-29 10:49 | 41.27323 | 0.37661 | 23883 ft | 378 kts | 95° |
| 2026-04-29 10:49 | 41.27191 | 0.41145 | 23409 ft | 377 kts | 95° |
| 2026-04-29 10:49 | 41.27058 | 0.44611 | 22919 ft | 375 kts | 95° |
| 2026-04-29 10:50 | 41.26924 | 0.48063 | 22466 ft | 372 kts | 95° |
| 2026-04-29 10:50 | 41.26789 | 0.51488 | 22004 ft | 370 kts | 95° |
| 2026-04-29 10:50 | 41.26653 | 0.54898 | 21538 ft | 369 kts | 95° |
| 2026-04-29 10:50 | 41.26517 | 0.58294 | 21081 ft | 367 kts | 95° |
| 2026-04-29 10:51 | 41.26382 | 0.61682 | 20609 ft | 367 kts | 95° |
| 2026-04-29 10:51 | 41.26247 | 0.65070 | 20145 ft | 366 kts | 95° |
| 2026-04-29 10:51 | 41.26109 | 0.68452 | 19667 ft | 366 kts | 95° |
| 2026-04-29 10:51 | 41.25969 | 0.71833 | 19193 ft | 366 kts | 95° |
| 2026-04-29 10:52 | 41.25829 | 0.75203 | 18720 ft | 366 kts | 95° |
| 2026-04-29 10:52 | 41.25688 | 0.78580 | 18244 ft | 366 kts | 95° |
| 2026-04-29 10:52 | 41.25546 | 0.81955 | 17737 ft | 365 kts | 95° |
| 2026-04-29 10:52 | 41.25402 | 0.85320 | 17273 ft | 364 kts | 95° |
| 2026-04-29 10:53 | 41.25259 | 0.88662 | 16812 ft | 361 kts | 95° |
| 2026-04-29 10:53 | 41.25116 | 0.91984 | 16360 ft | 360 kts | 95° |
| 2026-04-29 10:53 | 41.24975 | 0.95293 | 15909 ft | 358 kts | 95° |
| 2026-04-29 10:53 | 41.24833 | 0.98549 | 15451 ft | 356 kts | 95° |
| 2026-04-29 10:54 | 41.24689 | 1.01817 | 15017 ft | 354 kts | 95° |
| 2026-04-29 10:54 | 41.24543 | 1.05084 | 14572 ft | 353 kts | 95° |
| 2026-04-29 10:54 | 41.24397 | 1.08344 | 14113 ft | 353 kts | 95° |
| 2026-04-29 10:54 | 41.24251 | 1.11594 | 13641 ft | 352 kts | 95° |
| 2026-04-29 10:55 | 41.24107 | 1.14828 | 13168 ft | 350 kts | 95° |
| 2026-04-29 10:55 | 41.23963 | 1.18042 | 12687 ft | 347 kts | 95° |
| 2026-04-29 10:55 | 41.23820 | 1.21219 | 12252 ft | 344 kts | 95° |
| 2026-04-29 10:55 | 41.23679 | 1.24378 | 11786 ft | 341 kts | 95° |
| 2026-04-29 10:56 | 41.23537 | 1.27520 | 11329 ft | 339 kts | 95° |
| 2026-04-29 10:56 | 41.23391 | 1.30635 | 10859 ft | 337 kts | 95° |
| 2026-04-29 10:56 | 41.23245 | 1.33743 | 10403 ft | 335 kts | 95° |
| 2026-04-29 10:56 | 41.23102 | 1.36796 | 10167 ft | 326 kts | 95° |
| 2026-04-29 10:57 | 41.22963 | 1.39749 | 10042 ft | 314 kts | 95° |
| 2026-04-29 10:57 | 41.22829 | 1.42586 | 9923 ft | 303 kts | 95° |
| 2026-04-29 10:57 | 41.22701 | 1.45328 | 9734 ft | 293 kts | 95° |
| 2026-04-29 10:57 | 41.22574 | 1.47978 | 9150 ft | 289 kts | 95° |
| 2026-04-29 10:58 | 41.22444 | 1.50632 | 8489 ft | 287 kts | 95° |
| 2026-04-29 10:58 | 41.22312 | 1.53290 | 7832 ft | 284 kts | 95° |
| 2026-04-29 10:58 | 41.22183 | 1.55899 | 7203 ft | 281 kts | 95° |
| 2026-04-29 10:58 | 41.22058 | 1.58473 | 6585 ft | 278 kts | 95° |
| 2026-04-29 10:59 | 41.21935 | 1.61021 | 6073 ft | 271 kts | 95° |
| 2026-04-29 10:59 | 41.21819 | 1.63435 | 5716 ft | 260 kts | 95° |
| 2026-04-29 10:59 | 41.21706 | 1.65778 | 5367 ft | 249 kts | 95° |
| 2026-04-29 10:59 | 41.21592 | 1.68064 | 5121 ft | 248 kts | 95° |
| 2026-04-29 11:00 | 41.21474 | 1.70343 | 4860 ft | 245 kts | 95° |
| 2026-04-29 11:00 | 41.21359 | 1.72566 | 4636 ft | 242 kts | 95° |
| 2026-04-29 11:00 | 41.21245 | 1.74784 | 4440 ft | 235 kts | 95° |
| 2026-04-29 11:00 | 41.21137 | 1.76917 | 4266 ft | 227 kts | 95° |
| 2026-04-29 11:01 | 41.21035 | 1.78976 | 4095 ft | 221 kts | 95° |
| 2026-04-29 11:01 | 41.20936 | 1.80987 | 3919 ft | 216 kts | 94° |
| 2026-04-29 11:01 | 41.21129 | 1.82912 | 3800 ft | 209 kts | 70° |
| 2026-04-29 11:01 | 41.21719 | 1.84672 | 3573 ft | 209 kts | 66° |
| 2026-04-29 11:02 | 41.22333 | 1.86427 | 3320 ft | 210 kts | 66° |
| 2026-04-29 11:02 | 41.22945 | 1.88192 | 3039 ft | 211 kts | 67° |
| 2026-04-29 11:02 | 41.23555 | 1.89958 | 2747 ft | 211 kts | 67° |
| 2026-04-29 11:02 | 41.24158 | 1.91706 | 2470 ft | 204 kts | 67° |
| 2026-04-29 11:03 | 41.24735 | 1.93376 | 2225 ft | 193 kts | 67° |
| 2026-04-29 11:03 | 41.25275 | 1.94944 | 1962 ft | 181 kts | 68° |
| 2026-04-29 11:03 | 41.25784 | 1.96424 | 1738 ft | 172 kts | 68° |
| 2026-04-29 11:03 | 41.26275 | 1.97851 | 1503 ft | 167 kts | 68° |
| 2026-04-29 11:04 | 41.26744 | 1.99212 | 1309 ft | 158 kts | 68° |
| 2026-04-29 11:04 | 41.27188 | 2.00503 | 1094 ft | 148 kts | 67° |
| 2026-04-29 11:04 | 41.27351 | 2.01025 | 990 ft | 146 kts | 73° |
| 2026-04-29 11:05 | 41.27741 | 2.02226 | 826 ft | 138 kts | 65° |
| 2026-04-29 11:05 | 41.28146 | 2.03350 | 666 ft | 133 kts | 66° |
| 2026-04-29 11:05 | 41.28539 | 2.04440 | 492 ft | 129 kts | 68° |
| 2026-04-29 11:05 | 41.28912 | 2.05521 | 321 ft | 128 kts | 68° |
| 2026-04-29 11:06 | 41.29281 | 2.06596 | 173 ft | 126 kts | 69° |
| 2026-04-29 11:06 | 41.29642 | 2.07653 | 35 ft | 125 kts | 69° |
| 2026-04-29 11:06 | 41.29957 | 2.08585 | 26 ft | 91 kts | 65° |
| 2026-04-29 11:06 | 41.30132 | 2.09096 | 19 ft | 26 kts | 73° |
| 2026-04-29 11:07 | 41.30132 | 2.09303 | 15 ft | 15 kts | 92° |
| 2026-04-29 11:07 | 41.30110 | 2.09413 | 15 ft | 12 kts | 138° |
| 2026-04-29 11:07 | 41.30045 | 2.09383 | 18 ft | 10 kts | 242° |
| 2026-04-29 11:07 | 41.30018 | 2.09304 | 18 ft | 9 kts | 245° |
| 2026-04-29 11:08 | 41.29989 | 2.09219 | 17 ft | 13 kts | 245° |
| 2026-04-29 11:08 | 41.29949 | 2.09103 | 17 ft | 14 kts | 245° |
| 2026-04-29 11:08 | 41.29913 | 2.08995 | 19 ft | 12 kts | 246° |
| 2026-04-29 11:08 | 41.29883 | 2.08906 | 20 ft | 11 kts | 245° |
| 2026-04-29 11:09 | 41.29841 | 2.08783 | 19 ft | 15 kts | 246° |
| 2026-04-29 11:09 | 41.29796 | 2.08652 | 17 ft | 15 kts | 245° |
| 2026-04-29 11:09 | 41.29754 | 2.08530 | 17 ft | 14 kts | 245° |
| 2026-04-29 11:09 | 41.29715 | 2.08416 | 18 ft | 13 kts | 245° |
| 2026-04-29 11:10 | 41.29679 | 2.08309 | 17 ft | 12 kts | 245° |
| 2026-04-29 11:10 | 41.29630 | 2.08230 | 16 ft | 11 kts | 191° |
| 2026-04-29 11:10 | 41.29543 | 2.08271 | 17 ft | 14 kts | 156° |
| 2026-04-29 11:10 | 41.29453 | 2.08325 | 17 ft | 14 kts | 155° |
| 2026-04-29 11:11 | 41.29366 | 2.08378 | 19 ft | 14 kts | 155° |
| 2026-04-29 11:11 | 41.29280 | 2.08429 | 20 ft | 13 kts | 155° |
| 2026-04-29 11:11 | 41.29191 | 2.08441 | 21 ft | 14 kts | 200° |
| 2026-04-29 11:11 | 41.29094 | 2.08396 | 19 ft | 15 kts | 199° |
| 2026-04-29 11:12 | 41.29030 | 2.08303 | 21 ft | 14 kts | 245° |
| 2026-04-29 11:12 | 41.28990 | 2.08188 | 19 ft | 13 kts | 245° |
| 2026-04-29 11:12 | 41.28952 | 2.08077 | 20 ft | 13 kts | 246° |
| 2026-04-29 11:12 | 41.28916 | 2.07970 | 21 ft | 12 kts | 245° |
| 2026-04-29 11:13 | 41.28886 | 2.07884 | 19 ft | 1 kts | 245° |
| 2026-04-29 11:13 | 41.28880 | 2.07867 | 20 ft | 5 kts | 246° |
| 2026-04-29 11:13 | 41.28895 | 2.07812 | 20 ft | 7 kts | 324° |
| 2026-04-29 11:14 | 41.28931 | 2.07789 | 19 ft | 3 kts | 335° |
| 2026-04-29 11:14 | 41.28945 | 2.07781 | 19 ft | 2 kts | 335° |
| 2026-04-29 11:14 | 41.28946 | 2.07780 | 19 ft | 0 kts | 335° |